Cerberus, Australia
Current Conditions -  °F | °C
As of 9:00 PM on Sunday 21 Dec 2014 (Local Time) from YMAV Reporting Station
Clear Clear  
Wind Chill: 66°   Ceiling: Unl
Heat Index: 66°   Visibility: 6mi
Dew Point: 59°   Wind: 7mph
Humidity: 78%   Direction: 190°S
Pressure: 29.91"   Gusts: NA
Location:  38.35°S, 145.17°E
Report Text: YMAV 211000Z AUTO 19006KT 9999 // NCD 19/15 Q1013
Loading
Personal Weather Stations






























Interactive Weather Map New forecast layout! Learn more

10-Day Weather Forecast

Advertisements
Track Severe Weather on mobile